sensor_id;sensor_type;location;lat;lon;timestamp;P1;durP1;ratioP1;P2;durP2;ratioP2
77168;SDS011;66281;45.114;20.730;2023-02-02T00:08:21;13.87;;;8.17;;
77168;SDS011;66281;45.114;20.730;2023-02-02T00:18:22;15.23;;;8.40;;
77168;SDS011;66281;45.114;20.730;2023-02-02T00:28:22;13.93;;;7.47;;
77168;SDS011;66281;45.114;20.730;2023-02-02T00:38:23;19.08;;;8.55;;
77168;SDS011;66281;45.114;20.730;2023-02-02T00:48:23;16.80;;;8.77;;
77168;SDS011;66281;45.114;20.730;2023-02-02T00:58:24;25.95;;;10.88;;
77168;SDS011;66281;45.114;20.730;2023-02-02T01:08:24;17.42;;;9.88;;
77168;SDS011;66281;45.114;20.730;2023-02-02T01:18:25;15.87;;;9.27;;
77168;SDS011;66281;45.114;20.730;2023-02-02T01:28:26;17.60;;;9.00;;
77168;SDS011;66281;45.114;20.730;2023-02-02T01:38:27;17.53;;;9.07;;
77168;SDS011;66281;45.114;20.730;2023-02-02T01:48:29;18.40;;;9.32;;
77168;SDS011;66281;45.114;20.730;2023-02-02T01:58:36;21.38;;;11.90;;
77168;SDS011;66281;45.114;20.730;2023-02-02T02:08:39;20.00;;;10.73;;
77168;SDS011;66281;45.114;20.730;2023-02-02T02:49:28;19.33;;;11.23;;
77168;SDS011;66281;45.114;20.730;2023-02-02T03:09:59;25.98;;;11.70;;
77168;SDS011;66281;45.114;20.730;2023-02-02T03:20:00;24.90;;;12.67;;
77168;SDS011;66281;45.114;20.730;2023-02-02T03:30:00;28.70;;;13.80;;
77168;SDS011;66281;45.114;20.730;2023-02-02T03:40:01;28.07;;;13.93;;
77168;SDS011;66281;45.114;20.730;2023-02-02T03:50:01;40.42;;;19.10;;
77168;SDS011;66281;45.114;20.730;2023-02-02T04:00:02;43.97;;;20.77;;
77168;SDS011;66281;45.114;20.730;2023-02-02T04:10:12;30.85;;;15.27;;
77168;SDS011;66281;45.114;20.730;2023-02-02T04:20:12;19.83;;;11.43;;
77168;SDS011;66281;45.114;20.730;2023-02-02T04:30:13;20.52;;;11.18;;
77168;SDS011;66281;45.114;20.730;2023-02-02T04:40:13;22.20;;;11.90;;
77168;SDS011;66281;45.114;20.730;2023-02-02T04:50:14;25.23;;;13.50;;
77168;SDS011;66281;45.114;20.730;2023-02-02T05:00:15;25.93;;;12.80;;
77168;SDS011;66281;45.114;20.730;2023-02-02T05:10:15;21.67;;;10.70;;
77168;SDS011;66281;45.114;20.730;2023-02-02T05:20:16;24.73;;;12.87;;
77168;SDS011;66281;45.114;20.730;2023-02-02T05:30:17;22.27;;;11.13;;
77168;SDS011;66281;45.114;20.730;2023-02-02T05:40:17;26.15;;;13.18;;
77168;SDS011;66281;45.114;20.730;2023-02-02T05:50:18;22.65;;;12.30;;
77168;SDS011;66281;45.114;20.730;2023-02-02T06:00:19;26.80;;;13.43;;
77168;SDS011;66281;45.114;20.730;2023-02-02T06:10:20;53.72;;;23.10;;
77168;SDS011;66281;45.114;20.730;2023-02-02T06:20:21;45.37;;;19.93;;
77168;SDS011;66281;45.114;20.730;2023-02-02T06:30:21;35.33;;;19.67;;
77168;SDS011;66281;45.114;20.730;2023-02-02T06:40:22;43.72;;;20.65;;
77168;SDS011;66281;45.114;20.730;2023-02-02T06:50:22;21.92;;;11.45;;
77168;SDS011;66281;45.114;20.730;2023-02-02T07:00:23;17.20;;;9.18;;
77168;SDS011;66281;45.114;20.730;2023-02-02T08:48:47;20.90;;;10.17;;
77168;SDS011;66281;45.114;20.730;2023-02-02T08:58:50;18.08;;;9.70;;
77168;SDS011;66281;45.114;20.730;2023-02-02T09:08:51;23.50;;;10.20;;
77168;SDS011;66281;45.114;20.730;2023-02-02T09:18:52;16.58;;;8.73;;
77168;SDS011;66281;45.114;20.730;2023-02-02T09:28:57;19.20;;;9.73;;
77168;SDS011;66281;45.114;20.730;2023-02-02T09:38:58;22.10;;;10.35;;
77168;SDS011;66281;45.114;20.730;2023-02-02T09:49:00;16.80;;;7.70;;
77168;SDS011;66281;45.114;20.730;2023-02-02T09:59:02;23.85;;;10.63;;
77168;SDS011;66281;45.114;20.730;2023-02-02T10:19:14;54.43;;;21.63;;
77168;SDS011;66281;45.114;20.730;2023-02-02T10:49:41;49.73;;;20.60;;
77168;SDS011;66281;45.114;20.730;2023-02-02T10:59:45;49.70;;;20.33;;
77168;SDS011;66281;45.114;20.730;2023-02-02T11:09:55;46.57;;;19.10;;
77168;SDS011;66281;45.114;20.730;2023-02-02T11:19:55;24.48;;;11.48;;
77168;SDS011;66281;45.114;20.730;2023-02-02T11:29:57;18.30;;;9.20;;
77168;SDS011;66281;45.114;20.730;2023-02-02T11:50:28;18.20;;;7.23;;
77168;SDS011;66281;45.114;20.730;2023-02-02T12:00:29;12.45;;;4.18;;
77168;SDS011;66281;45.114;20.730;2023-02-02T12:20:41;7.78;;;3.63;;
77168;SDS011;66281;45.114;20.730;2023-02-02T13:12:29;5.30;;;3.17;;
77168;SDS011;66281;45.114;20.730;2023-02-02T13:22:35;77.85;;;35.28;;
77168;SDS011;66281;45.114;20.730;2023-02-02T13:32:41;104.43;;;45.93;;
77168;SDS011;66281;45.114;20.730;2023-02-02T13:42:48;29.87;;;14.60;;
77168;SDS011;66281;45.114;20.730;2023-02-02T13:53:01;48.53;;;22.17;;
77168;SDS011;66281;45.114;20.730;2023-02-02T14:13:41;14.37;;;8.03;;
77168;SDS011;66281;45.114;20.730;2023-02-02T14:23:50;15.90;;;7.78;;
77168;SDS011;66281;45.114;20.730;2023-02-02T14:34:09;16.90;;;7.73;;
77168;SDS011;66281;45.114;20.730;2023-02-02T14:44:31;25.23;;;12.57;;
77168;SDS011;66281;45.114;20.730;2023-02-02T14:54:35;13.13;;;7.88;;
77168;SDS011;66281;45.114;20.730;2023-02-02T15:04:37;12.27;;;6.30;;
77168;SDS011;66281;45.114;20.730;2023-02-02T15:14:43;12.48;;;6.78;;
77168;SDS011;66281;45.114;20.730;2023-02-02T15:24:46;17.23;;;8.87;;
77168;SDS011;66281;45.114;20.730;2023-02-02T15:34:47;46.30;;;22.75;;
77168;SDS011;66281;45.114;20.730;2023-02-02T15:44:50;43.20;;;21.10;;
77168;SDS011;66281;45.114;20.730;2023-02-02T15:54:52;23.55;;;13.52;;
77168;SDS011;66281;45.114;20.730;2023-02-02T16:04:54;26.50;;;12.03;;
77168;SDS011;66281;45.114;20.730;2023-02-02T16:14:54;27.85;;;11.00;;
77168;SDS011;66281;45.114;20.730;2023-02-02T16:24:56;21.07;;;11.10;;
77168;SDS011;66281;45.114;20.730;2023-02-02T16:34:59;36.70;;;19.07;;
77168;SDS011;66281;45.114;20.730;2023-02-02T16:45:00;29.67;;;14.98;;
77168;SDS011;66281;45.114;20.730;2023-02-02T16:55:01;21.73;;;11.23;;
77168;SDS011;66281;45.114;20.730;2023-02-02T17:05:02;25.55;;;11.50;;
77168;SDS011;66281;45.114;20.730;2023-02-02T17:25:16;17.47;;;8.53;;
77168;SDS011;66281;45.114;20.730;2023-02-02T17:35:18;22.20;;;9.90;;
77168;SDS011;66281;45.114;20.730;2023-02-02T17:45:21;26.75;;;11.55;;
77168;SDS011;66281;45.114;20.730;2023-02-02T17:55:24;25.93;;;11.30;;
77168;SDS011;66281;45.114;20.730;2023-02-02T18:05:27;23.47;;;11.40;;
77168;SDS011;66281;45.114;20.730;2023-02-02T18:15:28;42.10;;;17.13;;
77168;SDS011;66281;45.114;20.730;2023-02-02T18:25:28;20.10;;;10.20;;
77168;SDS011;66281;45.114;20.730;2023-02-02T18:35:28;14.38;;;8.07;;
77168;SDS011;66281;45.114;20.730;2023-02-02T18:45:29;24.42;;;10.07;;
77168;SDS011;66281;45.114;20.730;2023-02-02T18:55:29;29.83;;;11.83;;
77168;SDS011;66281;45.114;20.730;2023-02-02T19:05:30;61.83;;;21.85;;
77168;SDS011;66281;45.114;20.730;2023-02-02T19:15:36;61.70;;;26.00;;
77168;SDS011;66281;45.114;20.730;2023-02-02T19:25:40;86.17;;;32.27;;
77168;SDS011;66281;45.114;20.730;2023-02-02T19:35:43;56.95;;;24.92;;
77168;SDS011;66281;45.114;20.730;2023-02-02T19:45:44;50.70;;;21.97;;
77168;SDS011;66281;45.114;20.730;2023-02-02T19:55:45;99.75;;;39.88;;
77168;SDS011;66281;45.114;20.730;2023-02-02T20:05:47;63.53;;;28.40;;
77168;SDS011;66281;45.114;20.730;2023-02-02T20:15:52;49.67;;;24.20;;
77168;SDS011;66281;45.114;20.730;2023-02-02T20:25:54;30.00;;;13.97;;
77168;SDS011;66281;45.114;20.730;2023-02-02T20:35:54;15.33;;;9.10;;
77168;SDS011;66281;45.114;20.730;2023-02-02T20:45:55;12.00;;;7.87;;
77168;SDS011;66281;45.114;20.730;2023-02-02T20:55:55;7.95;;;4.43;;
77168;SDS011;66281;45.114;20.730;2023-02-02T21:05:56;9.52;;;4.78;;
77168;SDS011;66281;45.114;20.730;2023-02-02T21:15:56;7.25;;;3.78;;
77168;SDS011;66281;45.114;20.730;2023-02-02T21:25:57;5.87;;;4.00;;
77168;SDS011;66281;45.114;20.730;2023-02-02T21:35:58;13.20;;;5.90;;
77168;SDS011;66281;45.114;20.730;2023-02-02T21:45:58;10.25;;;5.60;;
77168;SDS011;66281;45.114;20.730;2023-02-02T21:55:59;15.77;;;7.33;;
77168;SDS011;66281;45.114;20.730;2023-02-02T22:06:12;55.60;;;19.83;;
77168;SDS011;66281;45.114;20.730;2023-02-02T22:16:18;23.08;;;9.88;;
77168;SDS011;66281;45.114;20.730;2023-02-02T22:26:27;34.57;;;11.27;;
77168;SDS011;66281;45.114;20.730;2023-02-02T22:36:30;13.87;;;5.93;;
77168;SDS011;66281;45.114;20.730;2023-02-02T22:46:31;9.50;;;5.15;;
77168;SDS011;66281;45.114;20.730;2023-02-02T22:56:31;16.77;;;6.28;;
77168;SDS011;66281;45.114;20.730;2023-02-02T23:06:32;8.68;;;4.13;;
77168;SDS011;66281;45.114;20.730;2023-02-02T23:16:32;8.40;;;4.30;;
77168;SDS011;66281;45.114;20.730;2023-02-02T23:26:33;8.25;;;3.58;;
77168;SDS011;66281;45.114;20.730;2023-02-02T23:36:33;10.23;;;4.90;;
77168;SDS011;66281;45.114;20.730;2023-02-02T23:46:34;8.05;;;4.28;;
77168;SDS011;66281;45.114;20.730;2023-02-02T23:56:35;7.87;;;3.17;;
